createdAt,value
2017-12-17T00:00:51.410Z,3.31
2017-12-17T00:02:01.366Z,3.36
2017-12-17T00:03:11.068Z,3.31
2017-12-17T00:04:21.039Z,3.26
2017-12-17T00:05:30.980Z,3.31
2017-12-17T00:06:40.414Z,3.33
2017-12-17T00:07:49.893Z,3.33
2017-12-17T00:08:59.845Z,3.33
2017-12-17T00:10:09.794Z,3.29
2017-12-17T00:11:19.737Z,3.24
2017-12-17T00:12:29.168Z,3.34
2017-12-17T00:13:39.120Z,3.3
2017-12-17T00:14:48.816Z,3.21
2017-12-17T00:15:58.242Z,3.21
2017-12-17T00:17:07.926Z,3.18
2017-12-17T00:18:17.624Z,3.3
2017-12-17T00:19:27.328Z,3.21
2017-12-17T00:20:37.281Z,3.31
2017-12-17T00:21:47.249Z,3.24
2017-12-17T00:22:57.184Z,3.29
2017-12-17T00:24:06.889Z,3.26
2017-12-17T00:25:16.592Z,3.22
2017-12-17T00:26:26.019Z,3.27
2017-12-17T00:27:35.709Z,3.26
2017-12-17T00:28:45.669Z,3.21
2017-12-17T00:29:55.618Z,3.29
2017-12-17T00:31:05.573Z,3.21
2017-12-17T00:32:15.525Z,3.27
2017-12-17T00:33:25.479Z,3.16
2017-12-17T00:34:35.419Z,3.16
2017-12-17T00:35:45.120Z,3.3
2017-12-17T00:36:55.066Z,3.26
2017-12-17T00:38:04.494Z,3.19
2017-12-17T00:39:14.230Z,3.26
2017-12-17T00:40:24.189Z,3.33
2017-12-17T00:41:34.152Z,3.27
2017-12-17T00:42:43.585Z,3.26
2017-12-17T00:43:53.307Z,3.22
2017-12-17T00:45:02.992Z,3.22
2017-12-17T00:46:12.473Z,3.3
2017-12-17T00:47:22.409Z,3.24
2017-12-17T00:48:32.364Z,3.21
2017-12-17T00:49:42.054Z,3.31
2017-12-17T00:50:51.487Z,3.21
2017-12-17T00:52:01.179Z,3.26
2017-12-17T00:53:11.155Z,3.3
2017-12-17T00:54:20.614Z,3.29
2017-12-17T00:55:30.066Z,3.33
2017-12-17T00:56:40.037Z,3.33
2017-12-17T00:57:50.004Z,3.21
2017-12-17T00:58:59.941Z,3.36
2017-12-17T01:00:09.882Z,3.29
2017-12-17T01:01:19.821Z,3.22
2017-12-17T01:02:29.760Z,3.33
2017-12-17T01:03:39.712Z,3.29
2017-12-17T01:04:49.414Z,3.34
2017-12-17T01:05:59.116Z,3.34
2017-12-17T01:07:09.072Z,3.19
2017-12-17T01:08:19.020Z,3.11
2017-12-17T01:09:28.962Z,3.11
2017-12-17T01:10:38.661Z,3.13
2017-12-17T01:11:48.085Z,3.09
2017-12-17T01:12:57.757Z,3.11
2017-12-17T01:14:07.710Z,3.08
2017-12-17T01:15:17.389Z,3.03
2017-12-17T01:16:27.327Z,3
2017-12-17T01:17:37.021Z,3.01
2017-12-17T01:18:46.708Z,3.08
2017-12-17T01:19:56.191Z,3.06
2017-12-17T01:21:06.143Z,3.06
2017-12-17T01:22:15.833Z,3.05
2017-12-17T01:23:25.269Z,3.01
2017-12-17T01:24:34.961Z,3.06
2017-12-17T01:25:44.394Z,3.05
2017-12-17T01:26:54.082Z,2.94
2017-12-17T01:28:03.780Z,2.97
2017-12-17T01:29:13.723Z,2.98
2017-12-17T01:30:23.673Z,3.01
2017-12-17T01:31:33.612Z,3
2017-12-17T01:32:43.551Z,2.97
2017-12-17T01:33:53.521Z,2.98
2017-12-17T01:35:03.460Z,3.06
2017-12-17T01:36:13.406Z,2.95
2017-12-17T01:37:23.372Z,2.97
2017-12-17T01:38:33.078Z,3.06
2017-12-17T01:39:42.784Z,2.93
2017-12-17T01:40:52.732Z,3.05
2017-12-17T01:42:02.684Z,2.95
2017-12-17T01:43:12.642Z,2.98
2017-12-17T01:44:22.587Z,2.91
2017-12-17T01:45:32.005Z,3.03
2017-12-17T01:46:41.690Z,2.94
2017-12-17T01:47:51.372Z,3.01
2017-12-17T01:49:01.070Z,2.95
2017-12-17T01:50:10.757Z,2.98
2017-12-17T01:51:20.443Z,2.9
2017-12-17T01:52:30.397Z,3
2017-12-17T01:53:40.141Z,2.98
2017-12-17T01:54:50.159Z,2.97
2017-12-17T01:56:00.125Z,2.94
2017-12-17T01:57:09.813Z,2.95
2017-12-17T01:58:19.253Z,2.98
2017-12-17T01:59:29.207Z,3
2017-12-17T02:00:38.896Z,2.93
2017-12-17T02:01:48.588Z,2.9
2017-12-17T02:02:58.010Z,2.94
2017-12-17T02:04:08.017Z,2.91
2017-12-17T02:05:17.956Z,2.9
2017-12-17T02:06:27.645Z,2.95
2017-12-17T02:07:37.340Z,2.93
2017-12-17T02:08:47.294Z,2.94
2017-12-17T02:09:57.260Z,2.95
2017-12-17T02:11:06.944Z,2.93
2017-12-17T02:12:16.891Z,2.91
2017-12-17T02:13:26.586Z,2.9
2017-12-17T02:14:36.530Z,2.95
2017-12-17T02:15:46.469Z,2.95
2017-12-17T02:16:56.420Z,2.95
2017-12-17T02:18:06.113Z,3.01
2017-12-17T02:19:15.805Z,2.97
2017-12-17T02:20:25.796Z,2.93
2017-12-17T02:21:35.750Z,3.01
2017-12-17T02:22:45.432Z,2.9
2017-12-17T02:23:55.107Z,2.93
2017-12-17T02:25:05.067Z,2.94
2017-12-17T02:26:14.835Z,2.94
2017-12-17T02:27:25.099Z,2.91
2017-12-17T02:28:34.270Z,2.91
2017-12-17T02:29:43.955Z,2.95
2017-12-17T02:30:53.652Z,2.97
2017-12-17T02:32:03.605Z,2.97
2017-12-17T02:33:13.728Z,2.97
2017-12-17T02:34:23.672Z,3
2017-12-17T02:35:33.119Z,2.98
2017-12-17T02:36:42.806Z,2.93
2017-12-17T02:37:52.491Z,3
2017-12-17T02:39:01.937Z,2.98
2017-12-17T02:40:11.891Z,2.93
2017-12-17T02:41:21.589Z,2.93
2017-12-17T02:42:31.281Z,3
2017-12-17T02:43:41.238Z,2.93
2017-12-17T02:44:50.932Z,2.94
2017-12-17T02:46:00.885Z,2.95
2017-12-17T02:47:10.575Z,2.93
2017-12-17T02:48:20.528Z,2.94
2017-12-17T02:49:29.959Z,2.9
2017-12-17T02:50:39.662Z,3.01
2017-12-17T02:51:49.622Z,2.93
2017-12-17T02:52:59.320Z,2.95
2017-12-17T02:54:09.002Z,3
2017-12-17T02:55:18.959Z,2.91
2017-12-17T02:56:28.651Z,3
2017-12-17T02:57:38.616Z,2.94
2017-12-17T02:58:48.562Z,2.95
2017-12-17T02:59:58.261Z,2.97
2017-12-17T03:01:07.692Z,2.97
2017-12-17T03:02:17.116Z,2.97
2017-12-17T03:03:27.057Z,2.97
2017-12-17T03:04:36.741Z,2.93
2017-12-17T03:05:46.692Z,2.95
2017-12-17T03:06:56.380Z,2.98
2017-12-17T03:08:05.809Z,2.97
2017-12-17T03:09:15.506Z,2.91
2017-12-17T03:10:25.447Z,2.93
2017-12-17T03:11:35.158Z,2.88
2017-12-17T03:12:44.844Z,2.82
2017-12-17T03:13:54.017Z,2.79
2017-12-17T03:15:03.705Z,2.8
2017-12-17T03:16:13.409Z,2.85
2017-12-17T03:17:23.354Z,2.73
2017-12-17T03:18:33.046Z,2.64
2017-12-17T03:19:42.484Z,2.47
2017-12-17T03:20:52.429Z,2.4
2017-12-17T03:22:02.370Z,2.25
2017-12-17T03:23:12.305Z,2.26
2017-12-17T03:24:22.328Z,2.21
2017-12-17T03:25:32.268Z,2.08
2017-12-17T03:26:42.216Z,1.86
2017-12-17T03:27:51.912Z,1.89
2017-12-17T03:29:01.871Z,1.79
2017-12-17T03:30:11.558Z,1.81
2017-12-17T03:31:21.531Z,1.84
2017-12-17T03:32:31.211Z,1.71
2017-12-17T03:33:41.200Z,1.64
2017-12-17T03:34:50.903Z,1.66
2017-12-17T03:36:00.578Z,1.6
2017-12-17T03:37:10.258Z,1.63
2017-12-17T03:38:20.192Z,1.63
2017-12-17T03:39:29.883Z,1.6
2017-12-17T03:40:39.570Z,1.66
2017-12-17T03:41:49.529Z,1.57
2017-12-17T03:42:59.225Z,1.63
2017-12-17T03:44:08.908Z,1.57
2017-12-17T03:45:18.595Z,1.61
2017-12-17T03:46:28.638Z,1.64
2017-12-17T03:47:38.373Z,1.61
2017-12-17T03:48:48.056Z,1.61
2017-12-17T03:49:57.742Z,1.64
2017-12-17T03:51:07.688Z,1.64
2017-12-17T03:52:17.369Z,1.64
2017-12-17T03:53:26.792Z,1.7
2017-12-17T03:54:36.225Z,1.76
2017-12-17T03:55:45.919Z,1.75
2017-12-17T03:56:55.857Z,1.68
2017-12-17T03:58:05.542Z,1.79
2017-12-17T03:59:15.473Z,1.7
2017-12-17T04:00:25.422Z,1.79
2017-12-17T04:01:35.121Z,1.85
2017-12-17T04:02:45.083Z,1.84
2017-12-17T04:03:55.089Z,1.79
2017-12-17T04:05:04.513Z,1.84
2017-12-17T04:06:14.195Z,1.82
2017-12-17T04:07:23.885Z,1.89
2017-12-17T04:08:33.302Z,1.89
2017-12-17T04:09:42.740Z,1.95
2017-12-17T04:10:52.484Z,1.95
2017-12-17T04:12:02.428Z,1.95
2017-12-17T04:13:12.141Z,1.92
2017-12-17T04:14:21.570Z,1.88
2017-12-17T04:15:31.527Z,2.01
2017-12-17T04:16:40.965Z,2.07
2017-12-17T04:17:50.936Z,2.07
2017-12-17T04:19:00.890Z,2.03
2017-12-17T04:20:10.564Z,2.07
2017-12-17T04:21:20.490Z,2.15
2017-12-17T04:22:29.655Z,2.12
2017-12-17T04:23:39.334Z,2.08
2017-12-17T04:24:48.757Z,2.12
2017-12-17T04:25:58.442Z,2.15
2017-12-17T04:27:08.127Z,2.19
2017-12-17T04:28:18.076Z,2.14
2017-12-17T04:29:27.505Z,2.14
2017-12-17T04:30:37.198Z,2.18
2017-12-17T04:31:47.197Z,2.21
2017-12-17T04:32:56.889Z,2.15
2017-12-17T04:34:06.831Z,2.21
2017-12-17T04:35:16.841Z,2.26
2017-12-17T04:36:26.532Z,2.23
2017-12-17T04:37:35.954Z,2.22
2017-12-17T04:38:45.640Z,2.16
2017-12-17T04:39:55.642Z,2.08
2017-12-17T04:41:05.074Z,2.03
2017-12-17T04:42:15.016Z,1.78
2017-12-17T04:43:24.705Z,1.63
2017-12-17T04:44:34.646Z,1.52
2017-12-17T04:45:44.064Z,1.45
2017-12-17T04:46:54.021Z,1.27
2017-12-17T04:48:03.962Z,1.12
2017-12-17T04:49:13.637Z,1.13
2017-12-17T04:50:23.593Z,0.94
2017-12-17T04:51:33.535Z,0.92
2017-12-17T04:52:42.967Z,0.96
2017-12-17T04:53:52.384Z,0.95
2017-12-17T04:55:01.819Z,0.86
2017-12-17T04:56:11.760Z,0.84
2017-12-17T04:57:21.708Z,0.81
2017-12-17T04:58:31.664Z,0.78
2017-12-17T04:59:41.607Z,0.84
2017-12-17T05:00:51.565Z,0.85
2017-12-17T05:02:01.243Z,0.88
2017-12-17T05:03:11.240Z,0.81
2017-12-17T05:04:20.414Z,0.84
2017-12-17T05:05:29.849Z,0.88
2017-12-17T05:06:39.803Z,0.92
2017-12-17T05:07:49.501Z,0.81
2017-12-17T05:08:58.915Z,0.92
2017-12-17T05:10:08.635Z,0.96
2017-12-17T05:11:18.334Z,1.04
2017-12-17T05:12:27.769Z,0.99
2017-12-17T05:13:37.470Z,1.03
2017-12-17T05:14:47.158Z,1.2
2017-12-17T05:15:56.887Z,1.06
2017-12-17T05:17:06.579Z,1.07
2017-12-17T05:18:16.521Z,1.12
2017-12-17T05:19:26.213Z,1.14
2017-12-17T05:20:35.921Z,1.12
2017-12-17T05:21:45.600Z,1.14
2017-12-17T05:22:55.543Z,1.27
2017-12-17T05:24:05.492Z,1.24
2017-12-17T05:25:15.187Z,1.28
2017-12-17T05:26:25.123Z,1.27
2017-12-17T05:27:35.081Z,1.25
2017-12-17T05:28:44.494Z,1.24
2017-12-17T05:29:54.489Z,1.28
2017-12-17T05:31:04.179Z,1.27
2017-12-17T05:32:13.614Z,1.27
2017-12-17T05:33:23.550Z,1.31
2017-12-17T05:34:33.250Z,1.25
2017-12-17T05:35:42.928Z,1.3
2017-12-17T05:36:52.876Z,1.31
2017-12-17T05:38:01.788Z,1.31
2017-12-17T05:39:11.216Z,1.4
2017-12-17T05:40:20.649Z,1.32
2017-12-17T05:41:30.346Z,1.31
2017-12-17T05:42:40.293Z,1.34
2017-12-17T05:43:50.229Z,1.31
2017-12-17T05:45:00.169Z,1.34
2017-12-17T05:46:09.854Z,1.32
2017-12-17T05:47:19.544Z,1.28
2017-12-17T05:48:29.496Z,1.28
2017-12-17T05:49:39.181Z,1.31
2017-12-17T05:50:49.185Z,1.34
2017-12-17T05:51:59.127Z,1.36
2017-12-17T05:53:08.854Z,1.31
2017-12-17T05:54:18.547Z,1.34
2017-12-17T05:55:27.977Z,1.38
2017-12-17T05:56:37.940Z,1.39
2017-12-17T05:57:47.888Z,1.3
2017-12-17T05:58:57.837Z,1.38
2017-12-17T06:00:06.999Z,1.38
2017-12-17T06:01:16.691Z,1.34
2017-12-17T06:02:26.375Z,1.43
2017-12-17T06:03:36.313Z,1.32
2017-12-17T06:04:46.257Z,1.36
2017-12-17T06:05:56.205Z,1.38
2017-12-17T06:07:06.212Z,1.36
2017-12-17T06:08:15.921Z,1.36
2017-12-17T06:09:25.352Z,1.38
2017-12-17T06:10:34.775Z,1.36
2017-12-17T06:11:44.730Z,1.42
2017-12-17T06:12:54.412Z,1.45
2017-12-17T06:14:03.829Z,1.31
2017-12-17T06:15:13.794Z,1.39
2017-12-17T06:16:23.485Z,1.38
2017-12-17T06:17:33.180Z,1.38
2017-12-17T06:18:43.134Z,1.4
2017-12-17T06:19:52.823Z,1.38
2017-12-17T06:21:02.500Z,1.34
2017-12-17T06:22:12.196Z,1.28
2017-12-17T06:23:21.881Z,1.45
2017-12-17T06:24:31.566Z,1.45
2017-12-17T06:25:41.327Z,1.32
2017-12-17T06:26:51.276Z,1.4
2017-12-17T06:28:00.721Z,1.42
2017-12-17T06:29:10.398Z,1.39
2017-12-17T06:30:20.329Z,1.4
2017-12-17T06:31:30.269Z,1.38
2017-12-17T06:32:39.963Z,1.38
2017-12-17T06:33:49.661Z,1.38
2017-12-17T06:34:59.352Z,1.38
2017-12-17T06:36:09.055Z,1.38
2017-12-17T06:37:18.743Z,1.42
2017-12-17T06:38:28.186Z,1.34
2017-12-17T06:39:37.898Z,1.43
2017-12-17T06:40:47.340Z,1.38
2017-12-17T06:41:57.022Z,1.4
2017-12-17T06:43:06.461Z,1.45
2017-12-17T06:44:16.156Z,1.43
2017-12-17T06:45:26.095Z,1.4
2017-12-17T06:46:35.778Z,1.39
2017-12-17T06:47:45.211Z,1.38
2017-12-17T06:48:54.913Z,1.38
2017-12-17T06:50:04.843Z,1.43
2017-12-17T06:51:14.526Z,1.43
2017-12-17T06:52:24.214Z,1.4
2017-12-17T06:53:33.900Z,1.45
2017-12-17T06:54:43.841Z,1.49
2017-12-17T06:55:53.530Z,1.45
2017-12-17T06:57:03.474Z,1.4
2017-12-17T06:58:13.405Z,1.36
2017-12-17T06:59:23.089Z,1.4
2017-12-17T07:00:33.029Z,1.39
2017-12-17T07:01:42.483Z,1.36
2017-12-17T07:02:51.660Z,1.42
2017-12-17T07:04:01.345Z,1.42
2017-12-17T07:05:11.029Z,1.42
2017-12-17T07:06:20.960Z,1.43
2017-12-17T07:07:30.649Z,1.42
2017-12-17T07:08:40.083Z,1.45
2017-12-17T07:09:50.039Z,1.48
2017-12-17T07:10:59.725Z,1.46
2017-12-17T07:12:09.666Z,1.43
2017-12-17T07:13:19.620Z,1.48
2017-12-17T07:14:29.568Z,1.48
2017-12-17T07:15:39.515Z,1.5
2017-12-17T07:16:49.455Z,1.48
2017-12-17T07:17:59.147Z,1.46
2017-12-17T07:19:08.834Z,1.52
2017-12-17T07:20:18.776Z,1.49
2017-12-17T07:21:28.730Z,1.45
2017-12-17T07:22:38.412Z,1.46
2017-12-17T07:23:48.103Z,1.49
2017-12-17T07:24:57.800Z,1.46
2017-12-17T07:26:07.241Z,1.49
2017-12-17T07:27:17.200Z,1.48
2017-12-17T07:28:26.884Z,1.58
2017-12-17T07:29:36.322Z,1.48
2017-12-17T07:30:46.002Z,1.46
2017-12-17T07:31:55.680Z,1.49
2017-12-17T07:33:05.363Z,1.34
2017-12-17T07:34:15.315Z,1.48
2017-12-17T07:35:25.253Z,1.45
2017-12-17T07:36:35.203Z,1.42
2017-12-17T07:37:45.157Z,1.4
2017-12-17T07:38:54.347Z,1.43
2017-12-17T07:40:04.293Z,1.34
2017-12-17T07:41:13.971Z,1.34
2017-12-17T07:42:23.918Z,1.45
2017-12-17T07:43:33.875Z,1.36
2017-12-17T07:44:43.826Z,1.38
2017-12-17T07:45:53.771Z,1.46
2017-12-17T07:47:03.195Z,1.45
2017-12-17T07:48:12.622Z,1.4
2017-12-17T07:49:22.573Z,1.49
2017-12-17T07:50:32.517Z,1.32
2017-12-17T07:51:42.216Z,1.48
2017-12-17T07:52:51.906Z,1.4
2017-12-17T07:54:01.344Z,1.42
2017-12-17T07:55:10.520Z,1.39
2017-12-17T07:56:20.194Z,1.39
2017-12-17T07:57:29.895Z,1.5
2017-12-17T07:58:39.861Z,1.5
2017-12-17T07:59:49.546Z,1.31
2017-12-17T08:00:59.238Z,1.5
2017-12-17T08:02:08.923Z,1.38
2017-12-17T08:03:18.869Z,1.42
2017-12-17T08:04:28.294Z,1.56
2017-12-17T08:05:37.985Z,1.46
2017-12-17T08:06:47.925Z,1.46
2017-12-17T08:07:57.877Z,1.49
2017-12-17T08:09:07.048Z,1.48
2017-12-17T08:10:16.831Z,1.43
2017-12-17T08:11:26.579Z,1.45
2017-12-17T08:12:36.275Z,1.45
2017-12-17T08:13:46.224Z,1.43
2017-12-17T08:14:55.943Z,1.46
2017-12-17T08:16:05.875Z,1.38
2017-12-17T08:17:15.568Z,1.36
2017-12-17T08:18:25.540Z,1.27
2017-12-17T08:19:35.249Z,1.16
2017-12-17T08:20:44.940Z,1.1
2017-12-17T08:21:54.880Z,1.13
2017-12-17T08:23:04.821Z,1.16
2017-12-17T08:24:14.261Z,1.13
2017-12-17T08:25:23.975Z,1.14
2017-12-17T08:26:33.919Z,1.03
2017-12-17T08:27:43.363Z,1.07
2017-12-17T08:28:53.372Z,1.12
2017-12-17T08:30:03.052Z,1.09
2017-12-17T08:31:12.754Z,1.09
2017-12-17T08:32:22.427Z,1.09
2017-12-17T08:33:31.342Z,1.03
2017-12-17T08:34:41.298Z,1.12
2017-12-17T08:35:50.992Z,1.12
2017-12-17T08:37:00.953Z,1.13
2017-12-17T08:38:10.382Z,1.18
2017-12-17T08:39:20.389Z,1.16
2017-12-17T08:40:30.092Z,1.12
2017-12-17T08:41:39.793Z,1.18
2017-12-17T08:42:49.765Z,1.27
2017-12-17T08:43:59.463Z,1.22
2017-12-17T08:45:09.407Z,1.21
2017-12-17T08:46:19.092Z,1.27
2017-12-17T08:47:29.099Z,1.3
2017-12-17T08:48:39.544Z,1.27
2017-12-17T08:49:49.243Z,1.36
2017-12-17T08:50:59.197Z,1.32
2017-12-17T08:52:09.132Z,1.38
2017-12-17T08:53:19.074Z,1.39
2017-12-17T08:54:28.771Z,1.43
2017-12-17T08:55:38.714Z,1.39
2017-12-17T08:56:48.671Z,1.4
2017-12-17T08:57:58.604Z,1.45
2017-12-17T08:59:08.298Z,1.49
2017-12-17T09:00:17.722Z,1.49
2017-12-17T09:01:27.152Z,1.45
2017-12-17T09:02:36.862Z,1.45
2017-12-17T09:03:46.631Z,1.43
2017-12-17T09:04:56.330Z,1.46
2017-12-17T09:06:06.020Z,1.52
2017-12-17T09:07:15.704Z,1.5
2017-12-17T09:08:25.138Z,1.57
2017-12-17T09:09:34.830Z,1.58
2017-12-17T09:10:44.765Z,1.57
2017-12-17T09:11:54.734Z,1.58
2017-12-17T09:13:04.176Z,1.56
2017-12-17T09:14:14.130Z,1.6
2017-12-17T09:15:23.810Z,1.57
2017-12-17T09:16:33.757Z,1.57
2017-12-17T09:17:43.442Z,1.58
2017-12-17T09:18:53.202Z,1.6
2017-12-17T09:20:02.882Z,1.67
2017-12-17T09:21:12.571Z,1.7
2017-12-17T09:22:22.010Z,1.74
2017-12-17T09:23:31.182Z,1.67
2017-12-17T09:24:41.132Z,1.71
2017-12-17T09:25:50.558Z,1.67
2017-12-17T09:27:00.236Z,1.78
2017-12-17T09:28:09.928Z,1.79
2017-12-17T09:29:19.858Z,1.75
2017-12-17T09:30:29.800Z,1.81
2017-12-17T09:31:39.519Z,1.79
2017-12-17T09:32:48.955Z,1.71
2017-12-17T09:33:58.655Z,1.84
2017-12-17T09:35:08.361Z,1.78
2017-12-17T09:36:17.793Z,1.89
2017-12-17T09:37:27.221Z,1.93
2017-12-17T09:38:37.185Z,1.97
2017-12-17T09:39:46.935Z,1.95
2017-12-17T09:40:56.741Z,1.93
2017-12-17T09:42:06.697Z,1.89
2017-12-17T09:43:16.656Z,1.89
2017-12-17T09:44:26.094Z,1.81
2017-12-17T09:45:36.067Z,1.97
2017-12-17T09:46:46.032Z,1.88
2017-12-17T09:47:55.978Z,1.95
2017-12-17T09:49:05.700Z,1.92
2017-12-17T09:50:15.643Z,1.97
2017-12-17T09:51:25.587Z,2.01
2017-12-17T09:52:35.561Z,2.03
2017-12-17T09:53:45.219Z,2.03
2017-12-17T09:54:54.659Z,2.03
2017-12-17T09:56:04.611Z,2.03
2017-12-17T09:57:14.901Z,2.07
2017-12-17T09:58:24.863Z,2.01
2017-12-17T09:59:34.824Z,2.03
2017-12-17T10:00:44.523Z,1.82
2017-12-17T10:01:54.497Z,1.85
2017-12-17T10:03:03.929Z,1.82
2017-12-17T10:04:13.895Z,1.75
2017-12-17T10:05:23.862Z,1.76
2017-12-17T10:06:33.037Z,1.67
2017-12-17T10:07:42.984Z,1.7
2017-12-17T10:08:52.686Z,1.67
2017-12-17T10:10:02.390Z,1.64
2017-12-17T10:11:12.361Z,1.63
2017-12-17T10:12:22.062Z,1.71
2017-12-17T10:13:31.754Z,1.6
2017-12-17T10:14:41.716Z,1.61
2017-12-17T10:15:51.676Z,1.58
2017-12-17T10:17:01.366Z,1.63
2017-12-17T10:18:11.311Z,1.57
2017-12-17T10:19:21.001Z,1.58
2017-12-17T10:20:30.978Z,1.6
2017-12-17T10:21:41.169Z,1.58
2017-12-17T10:22:50.860Z,1.63
2017-12-17T10:24:00.551Z,1.6
2017-12-17T10:25:10.505Z,1.78
2017-12-17T10:26:19.941Z,1.67
2017-12-17T10:27:29.649Z,1.63
2017-12-17T10:28:39.613Z,1.64
2017-12-17T10:29:49.590Z,1.63
2017-12-17T10:30:59.036Z,1.64
2017-12-17T10:32:09.028Z,1.6
2017-12-17T10:33:18.751Z,1.75
2017-12-17T10:34:28.699Z,1.6
2017-12-17T10:35:38.392Z,1.61
2017-12-17T10:36:48.092Z,1.64
2017-12-17T10:37:57.799Z,1.6
2017-12-17T10:39:07.231Z,1.64
2017-12-17T10:40:16.936Z,1.7
2017-12-17T10:41:26.890Z,1.63
2017-12-17T10:42:36.605Z,1.66
2017-12-17T10:43:46.296Z,1.64
2017-12-17T10:44:56.012Z,1.63
2017-12-17T10:46:05.959Z,1.66
2017-12-17T10:47:15.918Z,1.64
2017-12-17T10:48:25.619Z,1.63
2017-12-17T10:49:35.586Z,1.76
2017-12-17T10:50:45.542Z,1.75
2017-12-17T10:51:55.221Z,1.78
2017-12-17T10:53:05.185Z,1.95
2017-12-17T10:54:14.921Z,1.98
2017-12-17T10:55:24.108Z,2
2017-12-17T10:56:34.105Z,2.03
2017-12-17T10:57:44.061Z,2.04
2017-12-17T10:58:53.763Z,2.01
2017-12-17T11:00:03.452Z,2.05
2017-12-17T11:01:13.177Z,1.97
2017-12-17T11:02:23.139Z,2
2017-12-17T11:03:33.083Z,2.04
2017-12-17T11:04:43.096Z,2.12
2017-12-17T11:05:53.051Z,2.05
2017-12-17T11:07:01.966Z,2.1
2017-12-17T11:08:11.415Z,2.16
2017-12-17T11:09:21.454Z,2.08
2017-12-17T11:10:31.151Z,2.15
2017-12-17T11:11:40.856Z,2.22
2017-12-17T11:12:50.546Z,2.14
2017-12-17T11:14:00.506Z,2.14
2017-12-17T11:15:10.692Z,2.22
2017-12-17T11:16:20.381Z,2.26
2017-12-17T11:17:30.077Z,2.22
2017-12-17T11:18:39.775Z,2.26
2017-12-17T11:19:49.226Z,2.3
2017-12-17T11:20:58.666Z,2.28
2017-12-17T11:22:08.633Z,2.32
2017-12-17T11:23:17.812Z,2.15
2017-12-17T11:24:27.787Z,2.12
2017-12-17T11:25:36.955Z,2.16
2017-12-17T11:26:46.965Z,2.14
2017-12-17T11:27:56.924Z,2.12
2017-12-17T11:29:06.852Z,2.14
2017-12-17T11:30:16.549Z,2.21
2017-12-17T11:31:26.253Z,2.21
2017-12-17T11:32:36.205Z,2.3
2017-12-17T11:33:46.158Z,2.22
2017-12-17T11:34:55.588Z,2.23
2017-12-17T11:36:05.036Z,2.25
2017-12-17T11:37:14.992Z,2.32
2017-12-17T11:38:24.410Z,2.26
2017-12-17T11:39:34.362Z,2.23
2017-12-17T11:40:44.316Z,2.26
2017-12-17T11:41:54.302Z,2.14
2017-12-17T11:43:04.245Z,2.21
2017-12-17T11:44:13.936Z,2.33
2017-12-17T11:45:23.616Z,2.3
2017-12-17T11:46:32.798Z,2.26
2017-12-17T11:47:42.221Z,2.28
2017-12-17T11:48:51.955Z,2.33
2017-12-17T11:50:01.645Z,2.1
2017-12-17T11:51:11.333Z,2.21
2017-12-17T11:52:21.285Z,2.14
2017-12-17T11:53:31.228Z,2.1
2017-12-17T11:54:41.175Z,2.07
2017-12-17T11:55:51.125Z,2.16
2017-12-17T11:57:01.076Z,2.12
2017-12-17T11:58:10.743Z,2.12
2017-12-17T11:59:20.483Z,2.14
2017-12-17T12:00:30.508Z,2.14
2017-12-17T12:01:40.202Z,2.15
2017-12-17T12:02:49.911Z,2.1
2017-12-17T12:03:59.613Z,2.23
2017-12-17T12:05:09.315Z,2.21
2017-12-17T12:06:19.013Z,2.15
2017-12-17T12:07:28.694Z,2.14
2017-12-17T12:08:38.711Z,2.12
2017-12-17T12:09:48.677Z,2.08
2017-12-17T12:10:58.635Z,2.14
2017-12-17T12:12:08.075Z,2.16
2017-12-17T12:13:17.500Z,2.03
2017-12-17T12:14:27.465Z,2.05
2017-12-17T12:15:37.166Z,2.04
2017-12-17T12:16:47.122Z,2.03
2017-12-17T12:17:57.066Z,2.16
2017-12-17T12:19:06.263Z,2.15
2017-12-17T12:20:15.708Z,2.15
2017-12-17T12:21:25.669Z,2.12
2017-12-17T12:22:35.612Z,2.05
2017-12-17T12:23:45.300Z,2.03
2017-12-17T12:24:55.004Z,2.07
2017-12-17T12:26:04.960Z,2.07
2017-12-17T12:27:14.924Z,2.07
2017-12-17T12:28:24.636Z,2.07
2017-12-17T12:29:34.583Z,2.01
2017-12-17T12:30:44.273Z,2.03
2017-12-17T12:31:53.718Z,2.01
2017-12-17T12:33:03.664Z,1.98
2017-12-17T12:34:13.118Z,2.03
2017-12-17T12:35:22.826Z,2.03
2017-12-17T12:36:32.533Z,1.98
2017-12-17T12:37:42.478Z,2.03
2017-12-17T12:38:52.426Z,1.93
2017-12-17T12:40:02.381Z,1.98
2017-12-17T12:41:12.081Z,1.95
2017-12-17T12:42:22.046Z,1.78
2017-12-17T12:43:31.998Z,1.66
2017-12-17T12:44:41.955Z,1.64
2017-12-17T12:45:51.917Z,1.49
2017-12-17T12:47:01.871Z,1.49
2017-12-17T12:48:11.557Z,1.57
2017-12-17T12:49:21.538Z,1.57
2017-12-17T12:50:31.238Z,1.48
2017-12-17T12:51:40.933Z,1.56
2017-12-17T12:52:50.875Z,1.6
2017-12-17T12:54:00.561Z,1.61
2017-12-17T12:55:10.237Z,1.64
2017-12-17T12:56:19.671Z,1.61
2017-12-17T12:57:29.618Z,1.61
2017-12-17T12:58:39.570Z,1.71
2017-12-17T12:59:49.018Z,1.66
2017-12-17T13:00:58.978Z,1.74
2017-12-17T13:02:08.955Z,1.76
2017-12-17T13:03:18.895Z,1.74
2017-12-17T13:04:28.851Z,1.84
2017-12-17T13:05:38.796Z,1.79
2017-12-17T13:06:48.494Z,1.78
2017-12-17T13:07:57.679Z,1.79
2017-12-17T13:09:07.360Z,1.89
2017-12-17T13:10:16.798Z,1.88
2017-12-17T13:11:26.756Z,1.93
2017-12-17T13:12:36.452Z,1.93
2017-12-17T13:13:46.439Z,1.97
2017-12-17T13:14:56.222Z,1.97
2017-12-17T13:16:06.181Z,2.03
2017-12-17T13:17:16.141Z,1.93
2017-12-17T13:18:25.853Z,1.97
2017-12-17T13:19:35.590Z,1.97
2017-12-17T13:20:45.270Z,1.89
2017-12-17T13:21:54.968Z,2.08
2017-12-17T13:23:04.916Z,1.95
2017-12-17T13:24:14.612Z,2.08
2017-12-17T13:25:24.033Z,1.97
2017-12-17T13:26:34.284Z,1.88
2017-12-17T13:27:44.244Z,2
2017-12-17T13:28:53.674Z,2.04
2017-12-17T13:30:03.117Z,2.04
2017-12-17T13:31:13.058Z,2.03
2017-12-17T13:32:23.038Z,2.01
2017-12-17T13:33:32.745Z,2.04
2017-12-17T13:34:42.440Z,2.04
2017-12-17T13:35:52.383Z,2.07
2017-12-17T13:37:02.076Z,2.08
2017-12-17T13:38:11.500Z,2.03
2017-12-17T13:39:21.435Z,2.05
2017-12-17T13:40:31.393Z,2.05
2017-12-17T13:41:41.356Z,2.04
2017-12-17T13:42:51.050Z,2.04
2017-12-17T13:44:00.236Z,2.03
2017-12-17T13:45:09.666Z,2.03
2017-12-17T13:46:19.350Z,2.08
2017-12-17T13:47:29.040Z,2.03
2017-12-17T13:48:38.979Z,2.05
2017-12-17T13:49:48.681Z,2.12
2017-12-17T13:50:58.633Z,2.12
2017-12-17T13:52:08.340Z,2.18
2017-12-17T13:53:17.775Z,2.12
2017-12-17T13:54:27.480Z,2.1
2017-12-17T13:55:37.183Z,2.14
2017-12-17T13:56:47.186Z,2.16
2017-12-17T13:57:57.129Z,2.18
2017-12-17T13:59:07.136Z,2.15
2017-12-17T14:00:17.085Z,2.12
2017-12-17T14:01:26.780Z,2.14
2017-12-17T14:02:36.744Z,2.12
2017-12-17T14:03:46.737Z,2.01
2017-12-17T14:04:56.474Z,2.07
2017-12-17T14:06:06.176Z,2.14
2017-12-17T14:07:16.128Z,2.16
2017-12-17T14:08:26.091Z,2.08
2017-12-17T14:09:36.038Z,2.07
2017-12-17T14:10:45.987Z,2.12
2017-12-17T14:11:55.162Z,2.05
2017-12-17T14:13:04.909Z,2.03
2017-12-17T14:14:14.867Z,2.05
2017-12-17T14:15:24.812Z,2.04
2017-12-17T14:16:34.518Z,2.03
2017-12-17T14:17:44.482Z,2.04
2017-12-17T14:18:54.186Z,2.03
2017-12-17T14:20:03.887Z,2.1
2017-12-17T14:21:13.855Z,2.07
2017-12-17T14:22:23.563Z,2.04
2017-12-17T14:23:33.396Z,2.05
2017-12-17T14:24:42.861Z,2
2017-12-17T14:25:52.055Z,2
2017-12-17T14:27:01.763Z,2.01
2017-12-17T14:28:11.731Z,2.07
2017-12-17T14:29:21.172Z,2.03
2017-12-17T14:30:30.602Z,2.04
2017-12-17T14:31:40.555Z,2.03
2017-12-17T14:32:50.501Z,2.01
2017-12-17T14:33:59.929Z,2
2017-12-17T14:35:09.369Z,1.98
2017-12-17T14:36:18.819Z,1.98
2017-12-17T14:37:28.546Z,1.95
2017-12-17T14:38:38.502Z,2.04
2017-12-17T14:39:47.945Z,2.01
2017-12-17T14:40:57.641Z,2.03
2017-12-17T14:42:06.831Z,1.92
2017-12-17T14:43:16.514Z,1.97
2017-12-17T14:44:26.472Z,1.97
2017-12-17T14:45:36.421Z,1.93
2017-12-17T14:46:46.102Z,2
2017-12-17T14:47:56.071Z,1.98
2017-12-17T14:49:05.749Z,1.95
2017-12-17T14:50:15.721Z,1.98
2017-12-17T14:51:25.168Z,2
2017-12-17T14:52:34.866Z,1.93
2017-12-17T14:53:44.562Z,1.97
2017-12-17T14:54:54.523Z,1.97
2017-12-17T14:56:04.482Z,1.93
2017-12-17T14:57:14.506Z,1.93
2017-12-17T14:58:24.449Z,1.89
2017-12-17T14:59:34.400Z,1.92
2017-12-17T15:00:44.350Z,2
2017-12-17T15:01:54.304Z,2.03
2017-12-17T15:03:03.747Z,2.05
2017-12-17T15:04:13.710Z,2.05
2017-12-17T15:05:23.667Z,1.93
2017-12-17T15:06:33.360Z,1.93
2017-12-17T15:07:43.305Z,2.01
2017-12-17T15:08:53.002Z,1.95
2017-12-17T15:10:02.718Z,2
2017-12-17T15:11:12.138Z,2
2017-12-17T15:12:21.821Z,1.98
2017-12-17T15:13:31.248Z,1.93
2017-12-17T15:14:40.668Z,1.93
2017-12-17T15:15:50.358Z,2.01
2017-12-17T15:17:00.297Z,1.88
2017-12-17T15:18:09.725Z,1.97
2017-12-17T15:19:19.414Z,1.98
2017-12-17T15:20:29.377Z,2
2017-12-17T15:21:39.143Z,2
2017-12-17T15:22:48.840Z,1.97
2017-12-17T15:23:58.528Z,1.93
2017-12-17T15:25:08.480Z,1.92
2017-12-17T15:26:18.161Z,1.93
2017-12-17T15:27:27.853Z,2
2017-12-17T15:28:38.047Z,1.98
2017-12-17T15:29:47.999Z,1.93
2017-12-17T15:30:57.681Z,1.98
2017-12-17T15:32:07.637Z,1.92
2017-12-17T15:33:17.646Z,1.93